Time;durP1;ratioP1;P1;durP2;ratioP2;P2;SDS_P1;SDS_P2;PMS_P1;PMS_P2;Temp;Humidity;BMP_temperature;BMP_pressure;BME280_temperature;BME280_humidity;BME280_pressure;Samples;Min_cycle;Max_cycle;Signal;HPM_P1;HPM_P2
2022/01/17 00:00:11;;;;;;;27.70;12.20;;;4.60;97.30;;;;;;5015067;28;20671;-87
2022/01/17 00:02:37;;;;;;;33.90;14.37;;;4.60;97.30;;;;;;5014707;28;20286;-88
2022/01/17 00:05:08;;;;;;;34.23;11.40;;;4.60;97.30;;;;;;5032838;28;20790;-87
2022/01/17 00:07:34;;;;;;;23.00;10.53;;;4.60;97.30;;;;;;5014779;28;20502;-87
2022/01/17 00:10:00;;;;;;;26.70;11.47;;;4.60;97.30;;;;;;5014820;28;20419;-88
2022/01/17 00:12:26;;;;;;;27.70;11.33;;;4.60;97.30;;;;;;5014992;28;20632;-87
2022/01/17 00:14:54;;;;;;;30.23;11.87;;;4.50;97.30;;;;;;5014564;28;20262;-87
2022/01/17 00:19:47;;;;;;;30.07;11.63;;;4.50;97.30;;;;;;5032612;28;20416;-87
2022/01/17 00:22:15;;;;;;;28.37;10.87;;;4.50;97.30;;;;;;5014749;28;20192;-87
2022/01/17 00:24:41;;;;;;;30.87;10.80;;;4.50;97.30;;;;;;5032478;28;20492;-87
2022/01/17 00:27:06;;;;;;;30.67;11.40;;;4.50;97.30;;;;;;5014749;28;20760;-87
2022/01/17 00:29:32;;;;;;;22.20;11.00;;;4.50;97.30;;;;;;5013977;28;20912;-87
2022/01/17 00:31:59;;;;;;;25.50;11.50;;;4.50;97.30;;;;;;5014794;28;20196;-87
2022/01/17 00:34:25;;;;;;;27.33;10.80;;;4.50;97.30;;;;;;5020469;28;20460;-88
2022/01/17 00:36:51;;;;;;;23.57;10.17;;;4.50;97.30;;;;;;5034414;28;20414;-87
2022/01/17 00:39:17;;;;;;;29.30;11.43;;;4.50;97.30;;;;;;5034202;28;20898;-87
2022/01/17 00:41:43;;;;;;;24.73;10.67;;;4.50;97.30;;;;;;5033764;28;20470;-87
2022/01/17 00:44:08;;;;;;;29.23;12.07;;;4.50;97.30;;;;;;5051984;28;20680;-86
2022/01/17 00:46:34;;;;;;;27.13;11.77;;;4.50;97.30;;;;;;5033900;28;20183;-87
2022/01/17 00:48:59;;;;;;;26.80;11.63;;;4.50;97.30;;;;;;5034086;28;20261;-87
2022/01/17 00:51:25;;;;;;;29.30;11.43;;;4.50;97.30;;;;;;5052141;28;20188;-88
2022/01/17 00:53:51;;;;;;;29.93;12.10;;;4.50;97.30;;;;;;5051830;28;20183;-87
2022/01/17 00:56:19;;;;;;;30.20;10.53;;;4.50;97.30;;;;;;5033961;28;20183;-87
2022/01/17 00:58:45;;;;;;;27.87;11.33;;;4.50;97.30;;;;;;5034446;28;20441;-87
2022/01/17 01:01:10;;;;;;;34.50;11.23;;;4.60;97.30;;;;;;5034330;28;20916;-87
2022/01/17 01:03:36;;;;;;;30.03;10.30;;;4.60;97.30;;;;;;5033886;28;20231;-88
2022/01/17 01:06:02;;;;;;;23.07;10.17;;;4.60;97.30;;;;;;5035120;28;20202;-87
2022/01/17 01:08:27;;;;;;;22.67;9.90;;;4.60;97.30;;;;;;5034212;28;20208;-88
2022/01/17 01:10:53;;;;;;;29.87;11.37;;;4.60;97.30;;;;;;5034490;28;20453;-86
2022/01/17 01:13:22;;;;;;;27.90;10.60;;;4.70;97.30;;;;;;5033432;28;20200;-87
2022/01/17 01:16:09;;;;;;;27.87;11.40;;;4.70;97.30;;;;;;5034040;28;20283;-85
2022/01/17 01:29:11;;;;;;;25.50;9.97;;;4.60;97.30;;;;;;5052176;28;20505;-88
2022/01/17 01:34:12;;;;;;;24.03;10.37;;;4.60;97.30;;;;;;5046864;28;20407;-86
2022/01/17 01:36:38;;;;;;;28.30;11.03;;;4.60;97.30;;;;;;5014131;28;20411;-87
2022/01/17 01:39:06;;;;;;;27.53;10.33;;;4.60;97.30;;;;;;5032029;28;20407;-87
2022/01/17 01:41:42;;;;;;;28.43;11.60;;;4.60;97.30;;;;;;5013350;28;20945;-86
2022/01/17 01:44:21;;;;;;;28.37;10.63;;;4.60;97.30;;;;;;5014306;28;20877;-87
2022/01/17 01:46:48;;;;;;;22.10;9.03;;;4.60;97.30;;;;;;5013446;28;20510;-87
2022/01/17 01:49:15;;;;;;;25.63;10.60;;;4.60;97.30;;;;;;5014178;28;20434;-86
2022/01/17 01:51:41;;;;;;;25.23;10.10;;;4.60;97.30;;;;;;5013604;28;20471;-87
2022/01/17 01:54:10;;;;;;;21.60;9.37;;;4.60;97.30;;;;;;5013784;28;20470;-87
2022/01/17 01:56:38;;;;;;;19.57;7.87;;;4.60;97.30;;;;;;5013814;28;20415;-87
2022/01/17 01:59:05;;;;;;;18.77;8.83;;;4.60;97.30;;;;;;5013135;28;20815;-87
2022/01/17 02:01:33;;;;;;;28.90;10.00;;;4.60;97.30;;;;;;5013665;28;20554;-87
2022/01/17 02:03:59;;;;;;;24.50;9.97;;;4.70;97.30;;;;;;5031310;28;20411;-87
2022/01/17 02:06:25;;;;;;;22.90;8.77;;;4.70;97.30;;;;;;5013685;28;20419;-87
2022/01/17 02:08:50;;;;;;;20.37;10.50;;;4.70;97.30;;;;;;5013839;28;20463;-87
2022/01/17 02:11:17;;;;;;;22.60;9.40;;;4.70;97.30;;;;;;5012923;28;20663;-88
2022/01/17 02:13:42;;;;;;;24.77;10.33;;;4.70;97.30;;;;;;5013410;28;20310;-87
2022/01/17 02:16:12;;;;;;;29.07;10.57;;;4.70;97.30;;;;;;5012907;28;20506;-87
2022/01/17 02:18:38;;;;;;;22.30;9.07;;;4.70;97.30;;;;;;5013351;28;20319;-87
2022/01/17 02:21:18;;;;;;;24.13;10.57;;;4.70;97.30;;;;;;5012864;28;20814;-87
2022/01/17 02:23:46;;;;;;;21.20;8.90;;;4.70;97.30;;;;;;5012883;28;20458;-87
2022/01/17 02:26:12;;;;;;;22.83;9.60;;;4.70;97.30;;;;;;5030604;28;20902;-87
2022/01/17 02:28:39;;;;;;;20.20;8.60;;;4.70;97.30;;;;;;5030142;28;20948;-87
2022/01/17 02:31:06;;;;;;;18.90;7.80;;;4.80;97.30;;;;;;5011858;28;20447;-88
2022/01/17 02:33:35;;;;;;;22.40;8.77;;;4.80;97.30;;;;;;5012605;28;20918;-87
2022/01/17 02:36:02;;;;;;;17.33;8.60;;;4.80;97.30;;;;;;5032117;28;20410;-89
2022/01/17 02:38:27;;;;;;;18.10;8.60;;;4.80;97.30;;;;;;5032526;28;20501;-87
2022/01/17 02:40:54;;;;;;;22.07;8.90;;;4.80;97.30;;;;;;5032227;28;20513;-87
2022/01/17 02:43:21;;;;;;;22.40;9.10;;;4.80;97.30;;;;;;5032343;28;20744;-88
2022/01/17 02:48:17;;;;;;;20.90;8.53;;;4.90;97.30;;;;;;5050715;28;20987;-88
2022/01/17 02:50:43;;;;;;;18.03;8.13;;;4.90;97.30;;;;;;5050135;28;20422;-87
2022/01/17 02:53:09;;;;;;;15.07;7.47;;;4.90;97.30;;;;;;5034506;28;20440;-87
2022/01/17 02:55:36;;;;;;;19.57;7.50;;;4.90;97.30;;;;;;5036673;28;20685;-87
2022/01/17 02:58:01;;;;;;;19.53;7.80;;;4.90;97.30;;;;;;5036052;28;20417;-88
2022/01/17 03:00:27;;;;;;;20.67;8.00;;;5.00;97.30;;;;;;5036334;28;20414;-87
2022/01/17 03:02:53;;;;;;;15.90;6.63;;;5.00;97.30;;;;;;5053908;28;20262;-88
2022/01/17 03:05:20;;;;;;;17.77;8.20;;;5.00;97.30;;;;;;5053855;28;20711;-88
2022/01/17 03:07:47;;;;;;;21.30;8.43;;;5.00;97.30;;;;;;5054447;28;20454;-88
2022/01/17 03:12:45;;;;;;;17.63;7.17;;;5.10;97.30;;;;;;5054224;28;20816;-87
2022/01/17 03:15:12;;;;;;;14.63;6.03;;;5.10;97.30;;;;;;5054372;28;20399;-88
2022/01/17 03:17:38;;;;;;;17.87;7.90;;;5.10;97.30;;;;;;5036160;28;20245;-88
2022/01/17 03:20:04;;;;;;;16.00;6.40;;;5.10;97.30;;;;;;5036174;28;20909;-88
2022/01/17 03:22:30;;;;;;;22.43;7.50;;;5.10;97.30;;;;;;5034875;28;20218;-88
2022/01/17 03:24:55;;;;;;;14.00;6.43;;;5.10;97.30;;;;;;5035876;28;20410;-87
2022/01/17 03:27:20;;;;;;;14.80;7.13;;;5.20;97.30;;;;;;5035348;28;20639;-87
2022/01/17 03:29:46;;;;;;;17.73;6.70;;;5.20;97.30;;;;;;5035228;28;20176;-88
2022/01/17 03:32:11;;;;;;;12.13;6.00;;;5.20;97.30;;;;;;5035418;28;20733;-87
2022/01/17 03:34:39;;;;;;;15.63;6.93;;;5.10;97.30;;;;;;5027374;28;20180;-88
2022/01/17 03:37:05;;;;;;;10.17;5.43;;;5.20;97.30;;;;;;5015415;28;20176;-87
2022/01/17 03:39:31;;;;;;;17.10;6.10;;;5.10;97.30;;;;;;5015597;28;20415;-87
2022/01/17 03:41:56;;;;;;;18.03;6.10;;;5.10;97.30;;;;;;5033202;28;20946;-87
2022/01/17 03:44:22;;;;;;;12.03;4.90;;;5.20;97.30;;;;;;5015324;28;20204;-87
2022/01/17 03:46:47;;;;;;;14.43;5.20;;;5.20;97.30;;;;;;5015605;28;20180;-87
2022/01/17 03:49:13;;;;;;;21.47;6.07;;;5.20;97.30;;;;;;5033294;28;20421;-87
2022/01/17 03:51:38;;;;;;;10.97;5.60;;;5.20;97.30;;;;;;5015096;28;20200;-88
2022/01/17 03:54:04;;;;;;;18.80;5.10;;;5.20;97.30;;;;;;5033715;28;20180;-87
2022/01/17 03:56:29;;;;;;;9.70;4.90;;;5.20;97.30;;;;;;5033269;28;20181;-86
2022/01/17 03:58:55;;;;;;;13.80;5.33;;;5.20;97.30;;;;;;5015727;28;20176;-87
2022/01/17 04:01:20;;;;;;;9.50;4.70;;;5.20;97.30;;;;;;5014503;28;20268;-87
2022/01/17 04:03:46;;;;;;;10.47;4.20;;;5.20;97.30;;;;;;4994907;28;20185;-87
2022/01/17 04:06:15;;;;;;;13.53;4.83;;;5.20;97.30;;;;;;4995781;28;20185;-88
2022/01/17 04:08:41;;;;;;;9.83;4.50;;;5.20;97.30;;;;;;4995585;28;20843;-88
2022/01/17 04:11:06;;;;;;;6.90;4.20;;;5.30;97.30;;;;;;4995396;28;20485;-88
2022/01/17 04:13:33;;;;;;;10.20;4.90;;;5.30;97.30;;;;;;4995641;28;20926;-88
2022/01/17 04:15:58;;;;;;;10.60;5.17;;;5.30;97.30;;;;;;4995823;28;20239;-87
2022/01/17 04:18:24;;;;;;;10.27;4.60;;;5.30;97.30;;;;;;4995538;28;20503;-88
2022/01/17 04:20:50;;;;;;;8.00;4.47;;;5.30;97.30;;;;;;4995374;28;20335;-87
2022/01/17 04:23:17;;;;;;;13.00;5.87;;;5.30;97.30;;;;;;4994921;28;20566;-88
2022/01/17 04:25:44;;;;;;;12.53;5.00;;;5.30;97.30;;;;;;4995198;28;20420;-88
2022/01/17 04:28:12;;;;;;;11.80;5.47;;;5.30;97.30;;;;;;4994741;28;20474;-88
2022/01/17 04:30:38;;;;;;;10.43;4.40;;;5.30;97.30;;;;;;4994859;28;20444;-87
2022/01/17 04:33:05;;;;;;;12.40;5.50;;;5.30;97.30;;;;;;5012646;28;20435;-87
2022/01/17 04:35:31;;;;;;;10.43;5.03;;;5.30;97.30;;;;;;4994874;28;20424;-87
2022/01/17 04:38:00;;;;;;;10.87;5.17;;;5.30;97.30;;;;;;5012549;28;20420;-87
2022/01/17 04:40:33;;;;;;;10.70;4.70;;;5.30;97.30;;;;;;4995155;28;20950;-87
2022/01/17 04:42:58;;;;;;;10.80;5.00;;;5.30;97.30;;;;;;4994480;28;20444;-88
2022/01/17 04:45:24;;;;;;;10.47;4.80;;;5.30;97.30;;;;;;4994808;28;20416;-88
2022/01/17 04:47:52;;;;;;;9.50;5.50;;;5.30;97.30;;;;;;4994764;28;20208;-89
2022/01/17 04:50:26;;;;;;;16.87;4.80;;;5.30;97.30;;;;;;4994902;28;20248;-87
2022/01/17 04:52:57;;;;;;;8.30;4.67;;;5.30;97.30;;;;;;5012362;28;20799;-88
2022/01/17 04:55:24;;;;;;;11.70;5.30;;;5.30;97.30;;;;;;4994865;28;20830;-88
2022/01/17 04:57:50;;;;;;;10.93;5.20;;;5.30;97.30;;;;;;4994665;28;21033;-87
2022/01/17 05:00:18;;;;;;;11.30;5.10;;;5.30;97.30;;;;;;4995320;28;20776;-88
2022/01/17 05:02:45;;;;;;;13.00;5.63;;;5.30;97.30;;;;;;5006446;28;20501;-88
2022/01/17 05:05:11;;;;;;;7.30;5.00;;;5.30;97.30;;;;;;5014357;28;20421;-88
2022/01/17 05:07:38;;;;;;;11.83;5.00;;;5.40;97.30;;;;;;5014163;28;20467;-89
2022/01/17 05:10:07;;;;;;;15.73;4.90;;;5.40;97.30;;;;;;5014239;28;20418;-86
2022/01/17 05:12:33;;;;;;;10.70;4.63;;;5.40;97.30;;;;;;5014251;28;20488;-87
2022/01/17 05:14:59;;;;;;;14.10;4.80;;;5.40;97.30;;;;;;5014406;28;20419;-88
2022/01/17 05:20:02;;;;;;;12.97;5.13;;;5.50;97.30;;;;;;5031854;28;20426;-88
2022/01/17 05:22:33;;;;;;;11.43;4.33;;;5.60;97.30;;;;;;5013514;28;20485;-89
2022/01/17 05:25:06;;;;;;;13.30;5.00;;;5.60;97.30;;;;;;5031671;28;20415;-88
2022/01/17 05:27:32;;;;;;;11.73;4.77;;;5.60;97.30;;;;;;5013553;28;20455;-89
2022/01/17 05:29:58;;;;;;;15.60;4.87;;;5.60;97.30;;;;;;5013724;28;20408;-88
2022/01/17 05:32:23;;;;;;;12.27;4.90;;;5.60;97.30;;;;;;5013478;28;20451;-89
2022/01/17 05:34:49;;;;;;;10.27;3.90;;;5.60;97.30;;;;;;5023115;28;20176;-88
2022/01/17 05:37:15;;;;;;;17.73;5.20;;;5.60;97.30;;;;;;5033378;28;20178;-88
2022/01/17 05:39:42;;;;;;;13.00;5.63;;;5.60;97.30;;;;;;5033701;28;20176;-88
2022/01/17 05:42:10;;;;;;;11.67;4.30;;;5.70;97.30;;;;;;5033008;28;20192;-88
2022/01/17 05:44:35;;;;;;;9.23;4.67;;;5.60;97.30;;;;;;5051098;28;20406;-88
2022/01/17 05:47:02;;;;;;;11.43;4.07;;;5.60;97.30;;;;;;5051238;28;20493;-87
2022/01/17 05:49:27;;;;;;;10.40;6.27;;;5.60;97.30;;;;;;5033422;28;20172;-87
2022/01/17 05:51:53;;;;;;;11.10;4.30;;;5.60;97.30;;;;;;5032904;28;20481;-88
2022/01/17 05:54:18;;;;;;;13.90;4.97;;;5.60;97.30;;;;;;5032901;28;20172;-89
2022/01/17 05:56:44;;;;;;;8.20;3.83;;;5.60;97.30;;;;;;5050284;28;20566;-87
2022/01/17 05:59:10;;;;;;;18.53;4.50;;;5.60;97.30;;;;;;5032860;28;20211;-88
2022/01/17 06:01:39;;;;;;;6.83;3.37;;;5.70;97.30;;;;;;5032694;28;20863;-88
2022/01/17 06:04:05;;;;;;;7.27;3.77;;;5.70;97.30;;;;;;5032736;28;20411;-87
2022/01/17 06:06:31;;;;;;;14.17;4.47;;;5.70;97.30;;;;;;5032704;28;20488;-87
2022/01/17 06:08:56;;;;;;;6.90;3.00;;;5.70;97.30;;;;;;5032748;28;20498;-88
2022/01/17 06:11:22;;;;;;;10.77;3.10;;;5.70;97.30;;;;;;5032443;28;20188;-87
2022/01/17 06:13:47;;;;;;;8.40;2.73;;;5.70;97.30;;;;;;5032670;28;20199;-86
2022/01/17 06:16:13;;;;;;;6.83;2.97;;;5.80;97.30;;;;;;5032833;28;20214;-88
2022/01/17 06:18:38;;;;;;;5.63;1.90;;;5.80;97.30;;;;;;5032789;28;20650;-87
2022/01/17 06:21:04;;;;;;;4.80;2.70;;;5.80;97.30;;;;;;5032403;28;20180;-86
2022/01/17 06:23:30;;;;;;;5.33;1.90;;;5.80;97.30;;;;;;5032293;28;20290;-88
2022/01/17 06:25:55;;;;;;;6.10;1.73;;;5.80;97.30;;;;;;5036655;28;20837;-85
2022/01/17 06:28:21;;;;;;;8.03;2.03;;;5.70;97.30;;;;;;5021527;28;20205;-86
2022/01/17 06:30:46;;;;;;;8.87;1.67;;;5.70;97.30;;;;;;5029624;28;20179;-87
2022/01/17 06:33:12;;;;;;;2.67;1.40;;;5.70;97.30;;;;;;5032592;28;20215;-87
2022/01/17 06:35:37;;;;;;;11.47;2.53;;;5.70;97.30;;;;;;5032694;28;20264;-87
2022/01/17 06:38:03;;;;;;;6.80;1.73;;;5.70;97.30;;;;;;5050383;28;20184;-87
2022/01/17 06:40:29;;;;;;;2.00;1.40;;;5.70;97.30;;;;;;5032467;28;20180;-87
2022/01/17 06:42:55;;;;;;;9.50;2.70;;;5.70;97.30;;;;;;5032362;28;20253;-88
2022/01/17 06:45:21;;;;;;;3.13;1.57;;;5.70;97.30;;;;;;5032799;28;20422;-88
2022/01/17 06:47:46;;;;;;;5.20;1.67;;;5.70;97.30;;;;;;5032503;28;20207;-87
2022/01/17 06:50:13;;;;;;;7.53;1.73;;;5.70;97.30;;;;;;5029433;28;20921;-87
2022/01/17 06:52:39;;;;;;;6.87;1.67;;;5.70;97.30;;;;;;5012086;28;20196;-87
2022/01/17 06:55:09;;;;;;;4.60;1.50;;;5.70;97.30;;;;;;5026725;28;20417;-88
2022/01/17 06:57:35;;;;;;;5.90;1.50;;;5.70;97.30;;;;;;5050879;28;20428;-88
2022/01/17 07:00:03;;;;;;;4.73;2.00;;;5.70;97.30;;;;;;5050346;28;20460;-88
2022/01/17 07:02:29;;;;;;;7.03;1.50;;;5.70;97.30;;;;;;5050460;28;20990;-88
2022/01/17 07:04:54;;;;;;;5.40;1.63;;;5.70;97.30;;;;;;5050291;28;20429;-88
2022/01/17 07:07:21;;;;;;;4.07;1.50;;;5.70;97.30;;;;;;5051065;28;20219;-87
2022/01/17 07:09:46;;;;;;;8.73;1.50;;;5.70;97.30;;;;;;5052177;28;20199;-88
2022/01/17 07:12:11;;;;;;;10.77;1.80;;;5.70;97.30;;;;;;5051933;28;20977;-88
2022/01/17 07:14:41;;;;;;;4.60;1.63;;;5.70;97.30;;;;;;5051839;28;20199;-88
2022/01/17 07:17:08;;;;;;;3.67;1.30;;;5.70;97.30;;;;;;5052533;28;20175;-88
2022/01/17 07:19:34;;;;;;;5.20;1.53;;;5.70;97.30;;;;;;5052525;28;20433;-88
2022/01/17 07:21:59;;;;;;;8.47;1.60;;;5.70;97.30;;;;;;5052714;28;20429;-88
2022/01/17 07:24:24;;;;;;;7.97;2.00;;;5.70;97.30;;;;;;5052465;28;20544;-88
2022/01/17 07:26:51;;;;;;;8.47;1.47;;;5.70;97.30;;;;;;5052495;28;20183;-88
2022/01/17 07:29:16;;;;;;;7.90;2.07;;;5.70;97.30;;;;;;5052494;28;20313;-88
2022/01/17 07:31:42;;;;;;;5.13;1.47;;;5.60;97.30;;;;;;5052136;28;20512;-88
2022/01/17 07:34:09;;;;;;;2.53;1.60;;;5.60;97.30;;;;;;5047989;28;20198;-88
2022/01/17 07:36:37;;;;;;;6.10;1.87;;;5.60;97.30;;;;;;5050289;28;20727;-88
2022/01/17 07:39:03;;;;;;;14.10;1.87;;;5.60;97.30;;;;;;5031999;28;20605;-87
2022/01/17 07:41:29;;;;;;;7.23;2.00;;;5.60;97.30;;;;;;5035731;28;20441;-88
2022/01/17 07:43:54;;;;;;;8.67;1.90;;;5.60;97.30;;;;;;5035762;28;20407;-88
2022/01/17 07:46:29;;;;;;;6.40;1.30;;;5.60;97.30;;;;;;5034915;28;20187;-88
2022/01/17 07:49:16;;;;;;;6.00;2.00;;;5.60;97.30;;;;;;5053624;28;20225;-88
2022/01/17 07:51:44;;;;;;;4.10;1.37;;;5.60;97.30;;;;;;5034188;28;20873;-88
2022/01/17 07:54:14;;;;;;;3.80;1.47;;;5.60;97.30;;;;;;5035386;28;20413;-88
2022/01/17 07:56:40;;;;;;;4.93;1.20;;;5.60;97.30;;;;;;5035644;28;21014;-88
2022/01/17 07:59:09;;;;;;;6.77;1.70;;;5.60;97.30;;;;;;5035480;28;20484;-88
2022/01/17 08:01:36;;;;;;;2.63;1.90;;;5.60;97.30;;;;;;5035309;28;20441;-88
2022/01/17 08:04:02;;;;;;;6.87;2.13;;;5.60;97.30;;;;;;5036085;28;20840;-88
2022/01/17 08:06:28;;;;;;;16.00;1.67;;;5.60;97.30;;;;;;5035843;28;20422;-89
2022/01/17 08:08:55;;;;;;;3.87;1.90;;;5.60;97.30;;;;;;5035239;28;20485;-87
2022/01/17 08:11:21;;;;;;;3.70;1.70;;;5.60;97.30;;;;;;5049049;28;20550;-87
2022/01/17 08:13:47;;;;;;;9.60;1.50;;;5.60;97.30;;;;;;5054646;28;20413;-88
2022/01/17 08:16:14;;;;;;;6.70;2.67;;;5.60;97.30;;;;;;5072193;28;20413;-87
2022/01/17 08:18:41;;;;;;;3.40;2.07;;;5.60;97.30;;;;;;5055312;28;20482;-87
2022/01/17 08:21:06;;;;;;;7.17;2.07;;;5.60;97.30;;;;;;5072185;28;20956;-88
2022/01/17 08:23:32;;;;;;;7.17;1.63;;;5.60;97.30;;;;;;5055073;28;20421;-88
2022/01/17 08:25:58;;;;;;;10.53;1.90;;;5.60;97.30;;;;;;5054906;28;20178;-87
2022/01/17 08:28:23;;;;;;;4.17;2.10;;;5.60;97.30;;;;;;5055009;28;20207;-87
2022/01/17 08:30:49;;;;;;;3.53;1.60;;;5.60;97.30;;;;;;5072793;28;20179;-87
2022/01/17 08:33:15;;;;;;;9.73;1.80;;;5.60;97.30;;;;;;5072746;28;20199;-89
2022/01/17 08:35:40;;;;;;;6.03;1.40;;;5.60;97.30;;;;;;5054933;28;20179;-88
2022/01/17 08:38:06;;;;;;;3.17;1.67;;;5.70;97.30;;;;;;5054734;28;20179;-87
2022/01/17 08:40:32;;;;;;;5.43;1.57;;;5.70;97.30;;;;;;5054379;28;20187;-89
2022/01/17 08:42:57;;;;;;;4.70;2.10;;;5.70;97.30;;;;;;5054924;28;20641;-88
2022/01/17 08:45:24;;;;;;;12.50;1.90;;;5.70;97.30;;;;;;5054357;28;20190;-87
2022/01/17 08:47:51;;;;;;;7.43;1.97;;;5.70;97.30;;;;;;5054559;28;20215;-87
2022/01/17 08:50:19;;;;;;;5.03;1.30;;;5.70;97.30;;;;;;5053778;28;20409;-88
2022/01/17 08:52:45;;;;;;;1.53;1.30;;;5.70;97.30;;;;;;5054254;28;20433;-87
2022/01/17 08:55:11;;;;;;;4.67;1.30;;;5.70;97.30;;;;;;5054445;28;20950;-87
2022/01/17 08:57:37;;;;;;;5.97;1.47;;;5.70;97.30;;;;;;5054367;28;20478;-87
2022/01/17 09:00:10;;;;;;;2.60;1.20;;;5.70;97.30;;;;;;5053990;28;20183;-87
2022/01/17 09:02:36;;;;;;;6.83;1.20;;;5.70;97.30;;;;;;5045012;28;20285;-88
2022/01/17 09:05:02;;;;;;;1.20;1.00;;;5.80;97.30;;;;;;5033722;28;20414;-89
2022/01/17 09:07:27;;;;;;;3.90;1.87;;;5.80;97.30;;;;;;5034741;28;20541;-88
2022/01/17 09:09:53;;;;;;;4.07;1.80;;;5.80;97.30;;;;;;5034208;28;20533;-88
2022/01/17 09:12:19;;;;;;;7.60;1.83;;;5.80;97.30;;;;;;5033847;28;20205;-88
2022/01/17 09:14:44;;;;;;;3.27;1.60;;;5.80;97.30;;;;;;5052352;28;20263;-89
2022/01/17 09:17:10;;;;;;;8.57;2.30;;;5.70;97.30;;;;;;5033451;28;20194;-87
2022/01/17 09:19:37;;;;;;;2.60;1.30;;;5.70;97.30;;;;;;5034655;28;20374;-87
2022/01/17 09:22:05;;;;;;;11.03;1.90;;;5.70;97.30;;;;;;5033803;28;20438;-88
2022/01/17 09:24:31;;;;;;;2.20;1.57;;;5.70;97.30;;;;;;5034342;28;20422;-88
2022/01/17 09:26:56;;;;;;;4.50;1.70;;;5.70;97.30;;;;;;5034410;28;20418;-87
2022/01/17 09:29:22;;;;;;;2.20;1.20;;;5.70;97.30;;;;;;5033802;28;20668;-88
2022/01/17 09:31:47;;;;;;;4.37;2.13;;;5.70;97.30;;;;;;5033655;28;20200;-87
2022/01/17 09:34:13;;;;;;;4.40;1.73;;;5.70;97.30;;;;;;5029072;28;20196;-87
2022/01/17 09:36:39;;;;;;;2.47;1.40;;;5.70;97.30;;;;;;5012544;28;20188;-89
2022/01/17 09:39:07;;;;;;;9.90;1.70;;;5.80;97.30;;;;;;5012413;28;20180;-88
2022/01/17 09:41:32;;;;;;;9.13;1.53;;;5.80;97.30;;;;;;5011768;28;20526;-89
2022/01/17 09:43:59;;;;;;;4.20;1.33;;;5.80;97.30;;;;;;5012070;28;20514;-88
2022/01/17 09:46:31;;;;;;;2.27;1.10;;;5.80;97.30;;;;;;5011842;28;20180;-88
2022/01/17 09:49:02;;;;;;;4.90;1.90;;;5.80;97.30;;;;;;5011817;28;20550;-88
2022/01/17 09:51:51;;;;;;;5.47;1.10;;;5.90;97.30;;;;;;5012902;28;20474;-89
2022/01/17 09:54:20;;;;;;;1.33;1.20;;;5.90;97.30;;;;;;5013673;28;20480;-87
2022/01/17 09:56:50;;;;;;;5.10;1.03;;;5.90;97.30;;;;;;5013062;28;20423;-87
2022/01/17 09:59:16;;;;;;;3.87;1.20;;;5.90;97.30;;;;;;5012673;28;20445;-89
2022/01/17 10:01:42;;;;;;;3.23;0.97;;;5.90;97.30;;;;;;5012957;28;20961;-87
2022/01/17 10:04:09;;;;;;;1.20;1.00;;;5.90;97.30;;;;;;5032589;28;20435;-87
2022/01/17 10:06:35;;;;;;;2.30;1.63;;;5.90;97.30;;;;;;5032132;28;20414;-88
2022/01/17 10:09:17;;;;;;;10.30;1.07;;;6.00;97.30;;;;;;5050862;28;20491;-87
2022/01/17 10:12:02;;;;;;;2.87;0.90;;;6.00;97.30;;;;;;5032702;28;20862;-87
2022/01/17 10:14:29;;;;;;;2.50;0.97;;;6.00;97.30;;;;;;5033334;28;20407;-88
2022/01/17 10:16:55;;;;;;;2.77;0.90;;;6.00;97.30;;;;;;5033847;28;20497;-87
2022/01/17 10:19:26;;;;;;;5.57;2.47;;;6.10;97.30;;;;;;5032293;28;20510;-88
2022/01/17 10:21:55;;;;;;;5.20;1.17;;;6.10;97.30;;;;;;5032780;28;20191;-88
2022/01/17 10:24:44;;;;;;;4.10;1.57;;;6.10;97.30;;;;;;5033687;28;20518;-88
2022/01/17 10:28:21;;;;;;;1.77;1.17;;;6.10;97.30;;;;;;5032981;28;20497;-88
2022/01/17 10:30:39;;;;;;;2.83;1.10;;;6.10;97.30;;;;;;5033585;28;20410;-88
2022/01/17 10:35:56;;;;;;;8.70;1.30;;;6.10;97.30;;;;;;5052245;28;20514;-88
2022/01/17 10:38:24;;;;;;;5.30;1.30;;;6.10;97.30;;;;;;5033449;28;20931;-88
2022/01/17 10:40:56;;;;;;;2.57;1.03;;;6.20;97.30;;;;;;5051131;28;20406;-87
2022/01/17 10:43:33;;;;;;;2.43;1.50;;;6.20;97.30;;;;;;5052170;28;20826;-88
2022/01/17 10:45:58;;;;;;;2.27;1.20;;;6.20;97.30;;;;;;5033397;28;20425;-89
2022/01/17 10:48:34;;;;;;;3.43;1.50;;;6.20;97.30;;;;;;5033983;28;20840;-88
2022/01/17 10:51:01;;;;;;;1.83;1.00;;;6.30;97.30;;;;;;5033267;28;20186;-87
2022/01/17 10:53:26;;;;;;;5.00;1.30;;;6.20;97.30;;;;;;5032850;28;20956;-87
2022/01/17 10:55:54;;;;;;;4.53;1.37;;;6.20;97.30;;;;;;5033656;28;20419;-86
2022/01/17 10:58:31;;;;;;;1.20;1.10;;;6.30;97.30;;;;;;5032572;28;20650;-87
2022/01/17 11:01:02;;;;;;;5.50;1.60;;;6.30;97.30;;;;;;5051417;28;20548;-87
2022/01/17 11:03:33;;;;;;;1.33;1.00;;;6.30;97.30;;;;;;5050463;28;20466;-88
2022/01/17 11:06:03;;;;;;;2.60;1.30;;;6.30;97.30;;;;;;5032955;28;20414;-88
2022/01/17 11:08:33;;;;;;;4.23;1.27;;;6.30;97.30;;;;;;5051381;28;20462;-88
2022/01/17 11:11:00;;;;;;;5.63;1.40;;;6.40;97.30;;;;;;5032867;28;20422;-89
2022/01/17 11:13:32;;;;;;;2.00;1.10;;;6.40;97.30;;;;;;5034820;28;20490;-88
2022/01/17 11:16:00;;;;;;;3.63;1.37;;;6.40;97.30;;;;;;5036325;28;20414;-88
2022/01/17 11:18:29;;;;;;;4.17;1.50;;;6.40;97.30;;;;;;5036787;28;20419;-87
2022/01/17 11:20:56;;;;;;;1.93;1.60;;;6.40;97.30;;;;;;5036835;28;20912;-88
2022/01/17 11:23:23;;;;;;;1.07;1.03;;;6.40;97.30;;;;;;5035632;28;20947;-88
2022/01/17 11:25:55;;;;;;;3.83;1.40;;;6.40;97.30;;;;;;5036923;28;20434;-87
2022/01/17 11:28:26;;;;;;;2.60;1.47;;;6.40;97.30;;;;;;5053850;28;20492;-89
2022/01/17 11:30:55;;;;;;;1.23;1.03;;;6.40;97.30;;;;;;5036353;28;20908;-88
2022/01/17 11:33:21;;;;;;;3.43;1.00;;;6.40;97.30;;;;;;5035746;28;20441;-88
2022/01/17 11:35:51;;;;;;;3.70;1.50;;;6.40;97.30;;;;;;5018145;28;20785;-88
2022/01/17 11:38:24;;;;;;;2.00;1.00;;;6.40;97.30;;;;;;5015977;28;20433;-90
2022/01/17 11:40:50;;;;;;;2.30;1.63;;;6.30;97.30;;;;;;5016879;28;20430;-88
2022/01/17 11:43:15;;;;;;;3.30;1.37;;;6.20;97.30;;;;;;5016406;28;20504;-88
2022/01/17 11:45:42;;;;;;;5.60;1.30;;;6.10;97.30;;;;;;5041321;28;20850;-89
2022/01/17 11:48:23;;;;;;;2.90;1.27;;;6.00;97.30;;;;;;5055830;28;20195;-89
2022/01/17 11:50:51;;;;;;;4.40;1.23;;;6.00;97.30;;;;;;5057561;28;20428;-88
2022/01/17 11:53:16;;;;;;;1.63;1.20;;;6.00;97.30;;;;;;5057640;28;20434;-88
2022/01/17 11:55:47;;;;;;;4.50;1.40;;;6.00;97.30;;;;;;5075934;28;20492;-87
2022/01/17 11:58:22;;;;;;;2.60;1.20;;;6.00;97.30;;;;;;5057969;28;20179;-88
2022/01/17 12:00:49;;;;;;;1.27;1.10;;;6.00;97.30;;;;;;5057830;28;20923;-88
2022/01/17 12:03:19;;;;;;;1.33;1.20;;;6.10;97.30;;;;;;5057956;28;20476;-86
2022/01/17 12:05:45;;;;;;;2.43;1.60;;;6.10;97.30;;;;;;5057742;28;20414;-89
2022/01/17 12:08:15;;;;;;;3.17;1.53;;;6.10;97.30;;;;;;5057538;28;20468;-87
2022/01/17 12:10:50;;;;;;;2.03;1.33;;;6.20;97.30;;;;;;5057881;28;20187;-87
2022/01/17 12:13:20;;;;;;;2.87;1.43;;;6.20;97.30;;;;;;5057926;28;20779;-88
2022/01/17 12:15:55;;;;;;;2.50;1.17;;;6.20;97.30;;;;;;5057147;28;20406;-89
2022/01/17 12:18:36;;;;;;;1.40;1.30;;;6.20;97.30;;;;;;5057707;28;20429;-88
2022/01/17 12:21:23;;;;;;;3.20;1.47;;;6.30;97.30;;;;;;5057742;28;20406;-89
2022/01/17 12:23:49;;;;;;;1.80;1.23;;;6.30;97.30;;;;;;5075437;28;20417;-88
2022/01/17 12:26:25;;;;;;;1.50;1.40;;;6.30;97.30;;;;;;5057448;28;20475;-87
2022/01/17 12:28:53;;;;;;;1.87;1.13;;;6.30;97.30;;;;;;5057233;28;20453;-88
2022/01/17 12:31:40;;;;;;;5.40;1.50;;;6.30;97.30;;;;;;5056881;28;20447;-88
2022/01/17 12:34:22;;;;;;;1.37;1.27;;;6.20;97.30;;;;;;5050494;28;20429;-88
2022/01/17 12:36:48;;;;;;;2.50;1.23;;;6.10;97.30;;;;;;5034978;28;20449;-88
2022/01/17 12:39:20;;;;;;;2.00;1.40;;;6.10;97.30;;;;;;5035488;28;20437;-89
2022/01/17 12:41:58;;;;;;;3.13;1.30;;;6.10;97.30;;;;;;5035251;28;20673;-88
2022/01/17 12:44:26;;;;;;;1.50;1.40;;;6.00;97.30;;;;;;5035023;28;20528;-89
2022/01/17 12:46:55;;;;;;;4.17;1.30;;;6.00;97.30;;;;;;5034827;28;20423;-88
2022/01/17 12:49:21;;;;;;;2.80;1.73;;;6.00;97.30;;;;;;5018433;28;20466;-89
2022/01/17 12:51:50;;;;;;;1.53;1.50;;;6.00;97.30;;;;;;5034620;28;20426;-89
2022/01/17 12:54:19;;;;;;;4.13;1.30;;;6.00;97.30;;;;;;5034923;28;20420;-88
2022/01/17 12:56:47;;;;;;;2.80;1.33;;;6.00;97.30;;;;;;5034967;28;20410;-88
2022/01/17 12:59:15;;;;;;;2.53;1.43;;;6.00;97.30;;;;;;5034730;28;20786;-88
2022/01/17 13:01:53;;;;;;;1.80;1.30;;;6.00;97.30;;;;;;5034869;28;20438;-88
2022/01/17 13:04:19;;;;;;;1.37;1.10;;;6.00;97.30;;;;;;5052256;28;20410;-88
2022/01/17 13:06:51;;;;;;;4.83;1.50;;;6.00;97.30;;;;;;5053254;28;20413;-89
2022/01/17 13:09:23;;;;;;;2.20;1.40;;;6.00;97.30;;;;;;5035113;28;20474;-89
2022/01/17 13:11:52;;;;;;;2.50;1.70;;;6.00;97.30;;;;;;5034766;28;20823;-89
2022/01/17 13:14:20;;;;;;;4.20;1.83;;;6.00;97.30;;;;;;5052834;28;20402;-89
2022/01/17 13:16:47;;;;;;;7.13;1.70;;;6.00;97.30;;;;;;5034948;28;20414;-89
2022/01/17 13:19:14;;;;;;;5.40;1.67;;;6.00;97.30;;;;;;5035398;28;20422;-89